sensor_id;sensor_type;location;lat;lon;timestamp;P1;durP1;ratioP1;P2;durP2;ratioP2
52586;SDS011;38480;52.724;6.436;2024-03-08T00:00:34;49.57;;;24.57;;
52586;SDS011;38480;52.724;6.436;2024-03-08T00:03:00;48.23;;;24.20;;
52586;SDS011;38480;52.724;6.436;2024-03-08T00:05:27;44.80;;;20.80;;
52586;SDS011;38480;52.724;6.436;2024-03-08T00:07:53;47.13;;;21.50;;
52586;SDS011;38480;52.724;6.436;2024-03-08T00:10:19;45.13;;;22.97;;
52586;SDS011;38480;52.724;6.436;2024-03-08T00:12:46;52.50;;;23.93;;
52586;SDS011;38480;52.724;6.436;2024-03-08T00:15:13;46.93;;;23.03;;
52586;SDS011;38480;52.724;6.436;2024-03-08T00:17:42;47.30;;;22.10;;
52586;SDS011;38480;52.724;6.436;2024-03-08T00:20:09;44.80;;;22.70;;
52586;SDS011;38480;52.724;6.436;2024-03-08T00:22:36;50.70;;;25.07;;
52586;SDS011;38480;52.724;6.436;2024-03-08T00:25:06;48.00;;;22.77;;
52586;SDS011;38480;52.724;6.436;2024-03-08T00:27:34;48.57;;;22.43;;
52586;SDS011;38480;52.724;6.436;2024-03-08T00:30:02;48.00;;;24.10;;
52586;SDS011;38480;52.724;6.436;2024-03-08T00:32:28;44.60;;;22.10;;
52586;SDS011;38480;52.724;6.436;2024-03-08T00:34:54;46.80;;;25.57;;
52586;SDS011;38480;52.724;6.436;2024-03-08T00:37:20;48.30;;;23.50;;
52586;SDS011;38480;52.724;6.436;2024-03-08T00:39:48;46.00;;;24.03;;
52586;SDS011;38480;52.724;6.436;2024-03-08T00:42:18;47.57;;;24.30;;
52586;SDS011;38480;52.724;6.436;2024-03-08T00:44:44;47.50;;;24.53;;
52586;SDS011;38480;52.724;6.436;2024-03-08T00:47:10;47.80;;;23.23;;
52586;SDS011;38480;52.724;6.436;2024-03-08T00:49:36;46.40;;;23.40;;
52586;SDS011;38480;52.724;6.436;2024-03-08T00:52:03;44.63;;;23.23;;
52586;SDS011;38480;52.724;6.436;2024-03-08T00:54:33;52.63;;;24.97;;
52586;SDS011;38480;52.724;6.436;2024-03-08T00:56:59;43.57;;;21.80;;
52586;SDS011;38480;52.724;6.436;2024-03-08T00:59:28;49.90;;;23.97;;
52586;SDS011;38480;52.724;6.436;2024-03-08T01:01:54;55.17;;;24.87;;
52586;SDS011;38480;52.724;6.436;2024-03-08T01:04:21;47.83;;;22.77;;
52586;SDS011;38480;52.724;6.436;2024-03-08T01:06:48;50.50;;;23.83;;
52586;SDS011;38480;52.724;6.436;2024-03-08T01:09:14;40.23;;;21.33;;
52586;SDS011;38480;52.724;6.436;2024-03-08T01:11:42;45.53;;;23.83;;
52586;SDS011;38480;52.724;6.436;2024-03-08T01:14:08;50.53;;;25.70;;
52586;SDS011;38480;52.724;6.436;2024-03-08T01:16:35;49.63;;;23.87;;
52586;SDS011;38480;52.724;6.436;2024-03-08T01:19:01;54.33;;;29.70;;
52586;SDS011;38480;52.724;6.436;2024-03-08T01:21:28;52.20;;;26.53;;
52586;SDS011;38480;52.724;6.436;2024-03-08T01:23:54;58.63;;;30.70;;
52586;SDS011;38480;52.724;6.436;2024-03-08T01:26:20;52.13;;;25.70;;
52586;SDS011;38480;52.724;6.436;2024-03-08T01:28:46;55.90;;;23.97;;
52586;SDS011;38480;52.724;6.436;2024-03-08T01:31:13;48.37;;;23.77;;
52586;SDS011;38480;52.724;6.436;2024-03-08T01:33:41;53.03;;;25.27;;
52586;SDS011;38480;52.724;6.436;2024-03-08T01:36:07;54.23;;;25.80;;
52586;SDS011;38480;52.724;6.436;2024-03-08T01:38:33;50.57;;;25.90;;
52586;SDS011;38480;52.724;6.436;2024-03-08T01:40:59;49.23;;;23.10;;
52586;SDS011;38480;52.724;6.436;2024-03-08T01:43:26;51.50;;;25.10;;
52586;SDS011;38480;52.724;6.436;2024-03-08T01:45:53;48.50;;;23.70;;
52586;SDS011;38480;52.724;6.436;2024-03-08T01:48:20;48.50;;;25.37;;
52586;SDS011;38480;52.724;6.436;2024-03-08T01:50:49;61.47;;;27.47;;
52586;SDS011;38480;52.724;6.436;2024-03-08T01:53:17;47.63;;;24.47;;
52586;SDS011;38480;52.724;6.436;2024-03-08T01:55:44;57.87;;;26.87;;
52586;SDS011;38480;52.724;6.436;2024-03-08T01:58:11;57.20;;;24.77;;
52586;SDS011;38480;52.724;6.436;2024-03-08T02:00:38;56.07;;;24.97;;
52586;SDS011;38480;52.724;6.436;2024-03-08T02:03:05;58.83;;;26.07;;
52586;SDS011;38480;52.724;6.436;2024-03-08T02:05:31;58.70;;;26.67;;
52586;SDS011;38480;52.724;6.436;2024-03-08T02:07:57;56.93;;;27.20;;
52586;SDS011;38480;52.724;6.436;2024-03-08T02:10:23;56.43;;;26.27;;
52586;SDS011;38480;52.724;6.436;2024-03-08T02:12:50;50.27;;;24.40;;
52586;SDS011;38480;52.724;6.436;2024-03-08T02:15:16;51.90;;;26.13;;
52586;SDS011;38480;52.724;6.436;2024-03-08T02:17:42;49.63;;;25.83;;
52586;SDS011;38480;52.724;6.436;2024-03-08T02:20:08;55.53;;;27.90;;
52586;SDS011;38480;52.724;6.436;2024-03-08T02:22:35;49.10;;;25.40;;
52586;SDS011;38480;52.724;6.436;2024-03-08T02:25:02;48.00;;;27.07;;
52586;SDS011;38480;52.724;6.436;2024-03-08T02:27:28;54.47;;;27.13;;
52586;SDS011;38480;52.724;6.436;2024-03-08T02:29:55;52.33;;;27.67;;
52586;SDS011;38480;52.724;6.436;2024-03-08T02:32:24;54.23;;;26.60;;
52586;SDS011;38480;52.724;6.436;2024-03-08T02:34:50;54.50;;;26.27;;
52586;SDS011;38480;52.724;6.436;2024-03-08T02:37:16;51.63;;;26.23;;
52586;SDS011;38480;52.724;6.436;2024-03-08T02:39:43;53.53;;;25.63;;
52586;SDS011;38480;52.724;6.436;2024-03-08T02:42:09;45.00;;;24.23;;
52586;SDS011;38480;52.724;6.436;2024-03-08T02:44:35;51.87;;;25.00;;
52586;SDS011;38480;52.724;6.436;2024-03-08T02:47:01;56.27;;;25.97;;
52586;SDS011;38480;52.724;6.436;2024-03-08T02:49:27;51.10;;;25.03;;
52586;SDS011;38480;52.724;6.436;2024-03-08T02:51:53;48.03;;;24.17;;
52586;SDS011;38480;52.724;6.436;2024-03-08T02:54:19;51.30;;;25.87;;
52586;SDS011;38480;52.724;6.436;2024-03-08T02:56:45;53.40;;;26.10;;
52586;SDS011;38480;52.724;6.436;2024-03-08T02:59:12;52.60;;;23.87;;
52586;SDS011;38480;52.724;6.436;2024-03-08T03:01:38;54.13;;;28.10;;
52586;SDS011;38480;52.724;6.436;2024-03-08T03:04:06;51.77;;;26.50;;
52586;SDS011;38480;52.724;6.436;2024-03-08T03:06:32;42.47;;;24.20;;
52586;SDS011;38480;52.724;6.436;2024-03-08T03:08:58;50.07;;;26.30;;
52586;SDS011;38480;52.724;6.436;2024-03-08T03:11:24;54.07;;;26.40;;
52586;SDS011;38480;52.724;6.436;2024-03-08T03:13:50;53.70;;;26.50;;
52586;SDS011;38480;52.724;6.436;2024-03-08T03:16:19;50.30;;;25.97;;
52586;SDS011;38480;52.724;6.436;2024-03-08T03:18:46;53.03;;;25.53;;
52586;SDS011;38480;52.724;6.436;2024-03-08T03:21:12;56.27;;;27.73;;
52586;SDS011;38480;52.724;6.436;2024-03-08T03:23:41;48.83;;;24.90;;
52586;SDS011;38480;52.724;6.436;2024-03-08T03:26:09;50.83;;;25.67;;
52586;SDS011;38480;52.724;6.436;2024-03-08T03:28:38;48.07;;;25.73;;
52586;SDS011;38480;52.724;6.436;2024-03-08T03:31:07;48.27;;;24.40;;
52586;SDS011;38480;52.724;6.436;2024-03-08T03:33:39;48.87;;;25.73;;
52586;SDS011;38480;52.724;6.436;2024-03-08T03:36:05;48.37;;;25.43;;
52586;SDS011;38480;52.724;6.436;2024-03-08T03:38:33;50.57;;;26.20;;
52586;SDS011;38480;52.724;6.436;2024-03-08T03:40:59;53.77;;;25.43;;
52586;SDS011;38480;52.724;6.436;2024-03-08T03:43:34;49.50;;;24.37;;
52586;SDS011;38480;52.724;6.436;2024-03-08T03:46:02;49.43;;;25.13;;
52586;SDS011;38480;52.724;6.436;2024-03-08T03:48:30;52.23;;;25.93;;
52586;SDS011;38480;52.724;6.436;2024-03-08T03:50:57;51.93;;;24.97;;
52586;SDS011;38480;52.724;6.436;2024-03-08T03:53:25;50.53;;;25.73;;
52586;SDS011;38480;52.724;6.436;2024-03-08T03:55:52;50.27;;;27.13;;
52586;SDS011;38480;52.724;6.436;2024-03-08T03:58:18;55.70;;;26.70;;
52586;SDS011;38480;52.724;6.436;2024-03-08T04:00:47;49.87;;;25.90;;
52586;SDS011;38480;52.724;6.436;2024-03-08T04:03:14;50.70;;;25.43;;
52586;SDS011;38480;52.724;6.436;2024-03-08T04:05:41;56.27;;;26.53;;
52586;SDS011;38480;52.724;6.436;2024-03-08T04:08:07;51.77;;;25.83;;
52586;SDS011;38480;52.724;6.436;2024-03-08T04:10:33;47.60;;;25.97;;
52586;SDS011;38480;52.724;6.436;2024-03-08T04:12:59;51.80;;;28.00;;
52586;SDS011;38480;52.724;6.436;2024-03-08T04:15:25;49.97;;;25.53;;
52586;SDS011;38480;52.724;6.436;2024-03-08T04:17:51;53.57;;;26.90;;
52586;SDS011;38480;52.724;6.436;2024-03-08T04:20:17;50.37;;;26.17;;
52586;SDS011;38480;52.724;6.436;2024-03-08T04:22:43;47.00;;;25.30;;
52586;SDS011;38480;52.724;6.436;2024-03-08T04:25:09;57.13;;;28.03;;
52586;SDS011;38480;52.724;6.436;2024-03-08T04:27:35;56.67;;;27.37;;
52586;SDS011;38480;52.724;6.436;2024-03-08T04:30:02;54.20;;;26.73;;
52586;SDS011;38480;52.724;6.436;2024-03-08T04:32:28;53.80;;;26.83;;
52586;SDS011;38480;52.724;6.436;2024-03-08T04:34:54;50.10;;;26.40;;
52586;SDS011;38480;52.724;6.436;2024-03-08T04:37:20;50.30;;;27.13;;
52586;SDS011;38480;52.724;6.436;2024-03-08T04:39:47;53.73;;;26.17;;
52586;SDS011;38480;52.724;6.436;2024-03-08T04:42:13;48.90;;;26.10;;
52586;SDS011;38480;52.724;6.436;2024-03-08T04:44:39;54.87;;;26.87;;
52586;SDS011;38480;52.724;6.436;2024-03-08T04:47:05;57.53;;;28.07;;
52586;SDS011;38480;52.724;6.436;2024-03-08T04:49:32;51.73;;;25.30;;
52586;SDS011;38480;52.724;6.436;2024-03-08T04:52:01;50.27;;;28.33;;
52586;SDS011;38480;52.724;6.436;2024-03-08T04:54:28;55.87;;;28.03;;
52586;SDS011;38480;52.724;6.436;2024-03-08T04:56:54;61.97;;;26.63;;
52586;SDS011;38480;52.724;6.436;2024-03-08T04:59:20;57.57;;;27.10;;
52586;SDS011;38480;52.724;6.436;2024-03-08T05:01:46;47.80;;;25.93;;
52586;SDS011;38480;52.724;6.436;2024-03-08T05:04:12;53.70;;;27.47;;
52586;SDS011;38480;52.724;6.436;2024-03-08T05:06:38;56.33;;;28.37;;
52586;SDS011;38480;52.724;6.436;2024-03-08T05:09:04;52.40;;;26.70;;
52586;SDS011;38480;52.724;6.436;2024-03-08T05:11:40;63.07;;;29.17;;
52586;SDS011;38480;52.724;6.436;2024-03-08T05:14:06;53.73;;;28.77;;
52586;SDS011;38480;52.724;6.436;2024-03-08T05:16:32;47.10;;;26.67;;
52586;SDS011;38480;52.724;6.436;2024-03-08T05:18:59;49.83;;;27.10;;
52586;SDS011;38480;52.724;6.436;2024-03-08T05:21:25;56.53;;;26.93;;
52586;SDS011;38480;52.724;6.436;2024-03-08T05:23:51;51.07;;;27.13;;
52586;SDS011;38480;52.724;6.436;2024-03-08T05:26:16;58.70;;;27.17;;
52586;SDS011;38480;52.724;6.436;2024-03-08T05:28:42;60.57;;;28.97;;
52586;SDS011;38480;52.724;6.436;2024-03-08T05:31:08;53.87;;;27.27;;
52586;SDS011;38480;52.724;6.436;2024-03-08T05:33:34;51.67;;;25.67;;
52586;SDS011;38480;52.724;6.436;2024-03-08T05:36:00;59.70;;;27.30;;
52586;SDS011;38480;52.724;6.436;2024-03-08T05:38:27;55.27;;;27.53;;
52586;SDS011;38480;52.724;6.436;2024-03-08T05:40:53;52.73;;;26.43;;
52586;SDS011;38480;52.724;6.436;2024-03-08T05:43:19;50.30;;;26.83;;
52586;SDS011;38480;52.724;6.436;2024-03-08T05:45:46;60.30;;;26.33;;
52586;SDS011;38480;52.724;6.436;2024-03-08T05:48:13;54.37;;;27.67;;
52586;SDS011;38480;52.724;6.436;2024-03-08T05:50:39;53.07;;;26.63;;
52586;SDS011;38480;52.724;6.436;2024-03-08T05:53:05;54.93;;;28.93;;
52586;SDS011;38480;52.724;6.436;2024-03-08T05:55:34;59.10;;;29.07;;
52586;SDS011;38480;52.724;6.436;2024-03-08T05:58:03;61.30;;;29.33;;
52586;SDS011;38480;52.724;6.436;2024-03-08T06:00:29;66.13;;;30.63;;
52586;SDS011;38480;52.724;6.436;2024-03-08T06:02:56;57.27;;;28.43;;
52586;SDS011;38480;52.724;6.436;2024-03-08T06:05:23;56.13;;;26.47;;
52586;SDS011;38480;52.724;6.436;2024-03-08T06:07:50;59.07;;;28.47;;
52586;SDS011;38480;52.724;6.436;2024-03-08T06:10:18;53.97;;;31.23;;
52586;SDS011;38480;52.724;6.436;2024-03-08T06:12:44;120.53;;;78.73;;
52586;SDS011;38480;52.724;6.436;2024-03-08T06:15:12;60.40;;;31.00;;
52586;SDS011;38480;52.724;6.436;2024-03-08T06:17:41;59.93;;;30.23;;
52586;SDS011;38480;52.724;6.436;2024-03-08T06:20:08;57.60;;;28.97;;
52586;SDS011;38480;52.724;6.436;2024-03-08T06:22:38;60.80;;;27.27;;
52586;SDS011;38480;52.724;6.436;2024-03-08T06:25:06;61.40;;;29.60;;
52586;SDS011;38480;52.724;6.436;2024-03-08T06:27:32;64.27;;;31.37;;
52586;SDS011;38480;52.724;6.436;2024-03-08T06:29:59;54.73;;;28.17;;
52586;SDS011;38480;52.724;6.436;2024-03-08T06:32:25;60.93;;;29.70;;
52586;SDS011;38480;52.724;6.436;2024-03-08T06:34:51;62.80;;;28.23;;
52586;SDS011;38480;52.724;6.436;2024-03-08T06:37:17;58.53;;;31.43;;
52586;SDS011;38480;52.724;6.436;2024-03-08T06:39:47;57.20;;;29.50;;
52586;SDS011;38480;52.724;6.436;2024-03-08T06:42:16;60.47;;;29.60;;
52586;SDS011;38480;52.724;6.436;2024-03-08T06:44:42;57.23;;;28.93;;
52586;SDS011;38480;52.724;6.436;2024-03-08T06:47:14;58.77;;;28.53;;
52586;SDS011;38480;52.724;6.436;2024-03-08T06:49:41;58.93;;;29.97;;
52586;SDS011;38480;52.724;6.436;2024-03-08T06:52:08;60.17;;;29.77;;
52586;SDS011;38480;52.724;6.436;2024-03-08T06:54:34;58.50;;;27.13;;
52586;SDS011;38480;52.724;6.436;2024-03-08T06:57:04;55.83;;;29.57;;
52586;SDS011;38480;52.724;6.436;2024-03-08T06:59:32;60.87;;;30.97;;
52586;SDS011;38480;52.724;6.436;2024-03-08T07:02:01;56.20;;;29.40;;
52586;SDS011;38480;52.724;6.436;2024-03-08T07:04:27;59.13;;;32.23;;
52586;SDS011;38480;52.724;6.436;2024-03-08T07:06:55;67.30;;;34.10;;
52586;SDS011;38480;52.724;6.436;2024-03-08T07:09:22;59.03;;;31.83;;
52586;SDS011;38480;52.724;6.436;2024-03-08T07:11:48;67.63;;;33.53;;
52586;SDS011;38480;52.724;6.436;2024-03-08T07:14:20;75.27;;;43.40;;
52586;SDS011;38480;52.724;6.436;2024-03-08T07:16:46;58.20;;;31.67;;
52586;SDS011;38480;52.724;6.436;2024-03-08T07:19:12;55.90;;;28.47;;
52586;SDS011;38480;52.724;6.436;2024-03-08T07:21:38;52.20;;;29.27;;
52586;SDS011;38480;52.724;6.436;2024-03-08T07:24:04;58.70;;;32.47;;
52586;SDS011;38480;52.724;6.436;2024-03-08T07:26:43;60.23;;;33.70;;
52586;SDS011;38480;52.724;6.436;2024-03-08T07:29:09;52.67;;;26.53;;
52586;SDS011;38480;52.724;6.436;2024-03-08T07:31:35;54.63;;;28.97;;
52586;SDS011;38480;52.724;6.436;2024-03-08T07:34:01;55.13;;;30.40;;
52586;SDS011;38480;52.724;6.436;2024-03-08T07:36:28;53.17;;;29.27;;
52586;SDS011;38480;52.724;6.436;2024-03-08T07:38:54;54.77;;;28.40;;
52586;SDS011;38480;52.724;6.436;2024-03-08T07:41:20;54.97;;;32.03;;
52586;SDS011;38480;52.724;6.436;2024-03-08T07:43:47;51.33;;;27.20;;
52586;SDS011;38480;52.724;6.436;2024-03-08T07:46:14;52.40;;;25.80;;
52586;SDS011;38480;52.724;6.436;2024-03-08T07:48:39;46.83;;;24.50;;
52586;SDS011;38480;52.724;6.436;2024-03-08T07:51:06;41.30;;;22.83;;
52586;SDS011;38480;52.724;6.436;2024-03-08T07:53:34;46.40;;;27.77;;
52586;SDS011;38480;52.724;6.436;2024-03-08T07:56:00;48.60;;;25.83;;
52586;SDS011;38480;52.724;6.436;2024-03-08T07:58:26;61.90;;;37.60;;
52586;SDS011;38480;52.724;6.436;2024-03-08T08:00:53;50.70;;;28.63;;
52586;SDS011;38480;52.724;6.436;2024-03-08T08:03:19;39.67;;;21.90;;
52586;SDS011;38480;52.724;6.436;2024-03-08T08:05:46;50.03;;;27.97;;
52586;SDS011;38480;52.724;6.436;2024-03-08T08:08:12;46.20;;;24.33;;
52586;SDS011;38480;52.724;6.436;2024-03-08T08:10:38;38.17;;;23.23;;
52586;SDS011;38480;52.724;6.436;2024-03-08T08:13:04;41.67;;;24.23;;
52586;SDS011;38480;52.724;6.436;2024-03-08T08:15:30;40.97;;;21.60;;
52586;SDS011;38480;52.724;6.436;2024-03-08T08:17:56;36.27;;;20.83;;
52586;SDS011;38480;52.724;6.436;2024-03-08T08:20:22;38.93;;;23.77;;
52586;SDS011;38480;52.724;6.436;2024-03-08T08:22:48;38.60;;;24.17;;
52586;SDS011;38480;52.724;6.436;2024-03-08T08:25:15;37.30;;;22.63;;
52586;SDS011;38480;52.724;6.436;2024-03-08T08:27:41;35.53;;;21.07;;
52586;SDS011;38480;52.724;6.436;2024-03-08T08:30:10;36.73;;;21.67;;
52586;SDS011;38480;52.724;6.436;2024-03-08T08:32:36;36.37;;;22.97;;
52586;SDS011;38480;52.724;6.436;2024-03-08T08:35:03;40.73;;;20.63;;
52586;SDS011;38480;52.724;6.436;2024-03-08T08:37:32;40.00;;;22.27;;
52586;SDS011;38480;52.724;6.436;2024-03-08T08:40:02;40.00;;;21.97;;
52586;SDS011;38480;52.724;6.436;2024-03-08T08:42:33;38.87;;;22.27;;
52586;SDS011;38480;52.724;6.436;2024-03-08T08:44:59;36.20;;;23.03;;
52586;SDS011;38480;52.724;6.436;2024-03-08T08:47:29;37.93;;;22.60;;
52586;SDS011;38480;52.724;6.436;2024-03-08T08:49:55;38.40;;;23.40;;
52586;SDS011;38480;52.724;6.436;2024-03-08T08:52:21;35.57;;;18.57;;
52586;SDS011;38480;52.724;6.436;2024-03-08T08:54:48;36.20;;;21.07;;
52586;SDS011;38480;52.724;6.436;2024-03-08T08:57:14;41.60;;;23.40;;
52586;SDS011;38480;52.724;6.436;2024-03-08T08:59:40;38.97;;;23.07;;
52586;SDS011;38480;52.724;6.436;2024-03-08T09:02:06;40.60;;;22.53;;
52586;SDS011;38480;52.724;6.436;2024-03-08T09:04:34;35.03;;;21.67;;
52586;SDS011;38480;52.724;6.436;2024-03-08T09:07:00;37.37;;;22.10;;
52586;SDS011;38480;52.724;6.436;2024-03-08T09:09:26;35.63;;;21.63;;
52586;SDS011;38480;52.724;6.436;2024-03-08T09:11:53;31.00;;;20.80;;
52586;SDS011;38480;52.724;6.436;2024-03-08T09:14:20;34.87;;;21.20;;
52586;SDS011;38480;52.724;6.436;2024-03-08T09:16:46;34.17;;;21.53;;
52586;SDS011;38480;52.724;6.436;2024-03-08T09:19:12;33.40;;;21.23;;
52586;SDS011;38480;52.724;6.436;2024-03-08T09:21:38;34.43;;;20.33;;
52586;SDS011;38480;52.724;6.436;2024-03-08T09:24:05;28.90;;;18.97;;
52586;SDS011;38480;52.724;6.436;2024-03-08T09:26:32;31.90;;;20.27;;
52586;SDS011;38480;52.724;6.436;2024-03-08T09:28:58;31.53;;;18.83;;
52586;SDS011;38480;52.724;6.436;2024-03-08T09:31:24;30.23;;;19.20;;
52586;SDS011;38480;52.724;6.436;2024-03-08T09:33:51;28.90;;;18.93;;
52586;SDS011;38480;52.724;6.436;2024-03-08T09:36:17;29.17;;;19.30;;
52586;SDS011;38480;52.724;6.436;2024-03-08T09:38:43;29.53;;;19.70;;
52586;SDS011;38480;52.724;6.436;2024-03-08T09:41:09;30.63;;;19.53;;
52586;SDS011;38480;52.724;6.436;2024-03-08T09:43:35;33.47;;;19.27;;
52586;SDS011;38480;52.724;6.436;2024-03-08T09:46:02;31.27;;;19.80;;
52586;SDS011;38480;52.724;6.436;2024-03-08T09:48:31;30.10;;;19.00;;
52586;SDS011;38480;52.724;6.436;2024-03-08T09:50:57;26.20;;;17.20;;
52586;SDS011;38480;52.724;6.436;2024-03-08T09:53:24;30.67;;;18.20;;
52586;SDS011;38480;52.724;6.436;2024-03-08T09:55:50;31.50;;;19.60;;
52586;SDS011;38480;52.724;6.436;2024-03-08T09:58:17;28.93;;;17.77;;
52586;SDS011;38480;52.724;6.436;2024-03-08T10:00:49;25.37;;;18.97;;
52586;SDS011;38480;52.724;6.436;2024-03-08T10:03:15;27.27;;;17.50;;
52586;SDS011;38480;52.724;6.436;2024-03-08T10:05:41;28.70;;;19.50;;
52586;SDS011;38480;52.724;6.436;2024-03-08T10:08:09;28.30;;;18.37;;
52586;SDS011;38480;52.724;6.436;2024-03-08T10:10:36;26.80;;;19.20;;
52586;SDS011;38480;52.724;6.436;2024-03-08T10:13:05;27.83;;;18.17;;
52586;SDS011;38480;52.724;6.436;2024-03-08T10:15:31;33.87;;;20.23;;
52586;SDS011;38480;52.724;6.436;2024-03-08T10:18:00;28.40;;;18.57;;
52586;SDS011;38480;52.724;6.436;2024-03-08T10:20:30;29.90;;;18.83;;
52586;SDS011;38480;52.724;6.436;2024-03-08T10:23:02;30.53;;;19.03;;
52586;SDS011;38480;52.724;6.436;2024-03-08T10:25:30;27.90;;;18.53;;
52586;SDS011;38480;52.724;6.436;2024-03-08T10:27:56;27.93;;;20.00;;
52586;SDS011;38480;52.724;6.436;2024-03-08T10:30:22;32.50;;;19.77;;
52586;SDS011;38480;52.724;6.436;2024-03-08T10:32:48;26.50;;;18.37;;
52586;SDS011;38480;52.724;6.436;2024-03-08T10:35:14;25.50;;;18.73;;
52586;SDS011;38480;52.724;6.436;2024-03-08T10:37:45;27.27;;;18.67;;
52586;SDS011;38480;52.724;6.436;2024-03-08T10:40:20;25.33;;;17.57;;
52586;SDS011;38480;52.724;6.436;2024-03-08T10:42:58;28.97;;;18.23;;
52586;SDS011;38480;52.724;6.436;2024-03-08T10:50:41;28.23;;;18.43;;
52586;SDS011;38480;52.724;6.436;2024-03-08T10:53:15;25.23;;;18.37;;
52586;SDS011;38480;52.724;6.436;2024-03-08T10:55:41;26.63;;;18.77;;
52586;SDS011;38480;52.724;6.436;2024-03-08T10:58:08;26.87;;;18.47;;
52586;SDS011;38480;52.724;6.436;2024-03-08T11:00:35;27.03;;;19.27;;
52586;SDS011;38480;52.724;6.436;2024-03-08T11:03:02;26.27;;;19.70;;
52586;SDS011;38480;52.724;6.436;2024-03-08T11:08:19;27.03;;;18.90;;
52586;SDS011;38480;52.724;6.436;2024-03-08T11:10:46;28.97;;;18.10;;
52586;SDS011;38480;52.724;6.436;2024-03-08T11:16:01;27.97;;;18.73;;
52586;SDS011;38480;52.724;6.436;2024-03-08T11:18:32;23.73;;;18.07;;
52586;SDS011;38480;52.724;6.436;2024-03-08T11:21:01;27.30;;;18.43;;
52586;SDS011;38480;52.724;6.436;2024-03-08T11:23:30;25.93;;;18.27;;
52586;SDS011;38480;52.724;6.436;2024-03-08T11:25:57;26.40;;;18.30;;
52586;SDS011;38480;52.724;6.436;2024-03-08T11:28:23;26.37;;;18.07;;
52586;SDS011;38480;52.724;6.436;2024-03-08T11:33:30;26.67;;;18.60;;
52586;SDS011;38480;52.724;6.436;2024-03-08T11:36:12;23.70;;;17.13;;
52586;SDS011;38480;52.724;6.436;2024-03-08T11:38:41;24.33;;;18.20;;
52586;SDS011;38480;52.724;6.436;2024-03-08T11:41:09;27.43;;;17.30;;
52586;SDS011;38480;52.724;6.436;2024-03-08T11:43:39;28.57;;;19.27;;
52586;SDS011;38480;52.724;6.436;2024-03-08T11:46:13;24.87;;;17.40;;
52586;SDS011;38480;52.724;6.436;2024-03-08T11:48:40;24.08;;;17.48;;
52586;SDS011;38480;52.724;6.436;2024-03-08T11:51:12;22.93;;;16.23;;
52586;SDS011;38480;52.724;6.436;2024-03-08T11:53:39;21.10;;;16.73;;
52586;SDS011;38480;52.724;6.436;2024-03-08T11:56:09;28.30;;;18.13;;
52586;SDS011;38480;52.724;6.436;2024-03-08T11:58:36;21.40;;;16.67;;
52586;SDS011;38480;52.724;6.436;2024-03-08T12:01:05;22.30;;;16.67;;
52586;SDS011;38480;52.724;6.436;2024-03-08T12:03:32;25.40;;;18.70;;
52586;SDS011;38480;52.724;6.436;2024-03-08T12:05:59;27.17;;;17.70;;
52586;SDS011;38480;52.724;6.436;2024-03-08T12:08:25;22.80;;;17.37;;
52586;SDS011;38480;52.724;6.436;2024-03-08T12:10:54;22.37;;;16.93;;
52586;SDS011;38480;52.724;6.436;2024-03-08T12:13:27;23.33;;;17.73;;
52586;SDS011;38480;52.724;6.436;2024-03-08T12:16:02;24.08;;;17.77;;
52586;SDS011;38480;52.724;6.436;2024-03-08T12:18:37;24.27;;;18.47;;
52586;SDS011;38480;52.724;6.436;2024-03-08T12:21:04;22.08;;;16.83;;
52586;SDS011;38480;52.724;6.436;2024-03-08T12:23:34;22.83;;;17.87;;
52586;SDS011;38480;52.724;6.436;2024-03-08T12:26:12;22.30;;;17.53;;
52586;SDS011;38480;52.724;6.436;2024-03-08T12:28:39;22.07;;;17.17;;
52586;SDS011;38480;52.724;6.436;2024-03-08T12:31:06;24.57;;;18.40;;
52586;SDS011;38480;52.724;6.436;2024-03-08T12:33:37;23.10;;;18.00;;
52586;SDS011;38480;52.724;6.436;2024-03-08T12:36:03;21.83;;;17.17;;
52586;SDS011;38480;52.724;6.436;2024-03-08T12:38:32;24.17;;;18.50;;
52586;SDS011;38480;52.724;6.436;2024-03-08T12:41:00;22.57;;;18.27;;
52586;SDS011;38480;52.724;6.436;2024-03-08T12:43:26;21.53;;;16.93;;
52586;SDS011;38480;52.724;6.436;2024-03-08T12:45:55;21.80;;;17.57;;
52586;SDS011;38480;52.724;6.436;2024-03-08T12:48:21;21.17;;;17.43;;
52586;SDS011;38480;52.724;6.436;2024-03-08T12:50:47;20.83;;;17.13;;
52586;SDS011;38480;52.724;6.436;2024-03-08T12:53:13;21.50;;;17.07;;
52586;SDS011;38480;52.724;6.436;2024-03-08T12:55:39;20.13;;;16.60;;
52586;SDS011;38480;52.724;6.436;2024-03-08T12:58:06;19.17;;;15.83;;
52586;SDS011;38480;52.724;6.436;2024-03-08T13:00:35;19.83;;;15.50;;
52586;SDS011;38480;52.724;6.436;2024-03-08T13:03:08;22.80;;;15.85;;
52586;SDS011;38480;52.724;6.436;2024-03-08T13:05:35;19.73;;;15.47;;
52586;SDS011;38480;52.724;6.436;2024-03-08T13:08:05;17.63;;;15.10;;
52586;SDS011;38480;52.724;6.436;2024-03-08T13:10:31;21.30;;;16.30;;
52586;SDS011;38480;52.724;6.436;2024-03-08T13:12:57;20.60;;;15.20;;
52586;SDS011;38480;52.724;6.436;2024-03-08T13:15:23;18.17;;;14.93;;
52586;SDS011;38480;52.724;6.436;2024-03-08T13:17:49;17.70;;;14.50;;
52586;SDS011;38480;52.724;6.436;2024-03-08T13:20:15;20.63;;;15.17;;
52586;SDS011;38480;52.724;6.436;2024-03-08T13:22:43;20.13;;;15.90;;
52586;SDS011;38480;52.724;6.436;2024-03-08T13:25:09;19.37;;;15.67;;
52586;SDS011;38480;52.724;6.436;2024-03-08T13:27:39;22.90;;;15.77;;
52586;SDS011;38480;52.724;6.436;2024-03-08T13:30:07;27.73;;;23.90;;
52586;SDS011;38480;52.724;6.436;2024-03-08T13:32:37;22.70;;;16.30;;
52586;SDS011;38480;52.724;6.436;2024-03-08T13:35:04;22.10;;;16.43;;
52586;SDS011;38480;52.724;6.436;2024-03-08T13:37:37;19.85;;;14.77;;
52586;SDS011;38480;52.724;6.436;2024-03-08T13:40:03;22.70;;;17.13;;
52586;SDS011;38480;52.724;6.436;2024-03-08T13:42:30;21.50;;;16.30;;
52586;SDS011;38480;52.724;6.436;2024-03-08T13:44:56;21.40;;;16.40;;
52586;SDS011;38480;52.724;6.436;2024-03-08T13:47:23;20.80;;;16.10;;
52586;SDS011;38480;52.724;6.436;2024-03-08T13:49:49;22.23;;;16.67;;
52586;SDS011;38480;52.724;6.436;2024-03-08T13:52:15;19.67;;;15.97;;
52586;SDS011;38480;52.724;6.436;2024-03-08T13:54:42;19.40;;;16.10;;
52586;SDS011;38480;52.724;6.436;2024-03-08T13:57:08;20.70;;;16.20;;
52586;SDS011;38480;52.724;6.436;2024-03-08T13:59:34;18.87;;;15.93;;
52586;SDS011;38480;52.724;6.436;2024-03-08T14:02:00;20.27;;;16.37;;
52586;SDS011;38480;52.724;6.436;2024-03-08T14:04:27;22.67;;;16.60;;
52586;SDS011;38480;52.724;6.436;2024-03-08T14:06:53;20.43;;;17.50;;
52586;SDS011;38480;52.724;6.436;2024-03-08T14:09:25;18.57;;;15.60;;
52586;SDS011;38480;52.724;6.436;2024-03-08T14:11:54;21.50;;;17.00;;
52586;SDS011;38480;52.724;6.436;2024-03-08T14:14:20;20.23;;;16.27;;
52586;SDS011;38480;52.724;6.436;2024-03-08T14:16:48;20.00;;;16.17;;
52586;SDS011;38480;52.724;6.436;2024-03-08T14:19:14;20.67;;;16.77;;
52586;SDS011;38480;52.724;6.436;2024-03-08T14:21:40;21.47;;;17.03;;
52586;SDS011;38480;52.724;6.436;2024-03-08T14:24:07;21.10;;;16.30;;
52586;SDS011;38480;52.724;6.436;2024-03-08T14:26:33;21.30;;;16.03;;
52586;SDS011;38480;52.724;6.436;2024-03-08T14:29:03;18.13;;;14.93;;
52586;SDS011;38480;52.724;6.436;2024-03-08T14:31:30;19.20;;;15.80;;
52586;SDS011;38480;52.724;6.436;2024-03-08T14:33:56;20.80;;;17.87;;